Airfield :
LOGIN :

Register | Disclaimer

   EN    FR    IT 

 










Legend :    VFR   Marginal VFR   IFR   Intensive IFR   Very Intensive IFR
Visi :
Ceiling :
>= 8 km
>= 3000ft
5 to 8 km
1000 to 3000 ft
1500m to 5 km
500 to 1000 ft
800 to 1500m
200 to 500 ft
< 800m
< 200 ft
Symbols :   Thunderstorms  Fog  Heavy snow  Heavy precipitations  Wind > 20 kt
SIGMETs :     Misc.  Thunderstorms  Icing  Turbulence  Mountain Waves  Volcanic Ashes






- Airport Elevation : 102 ft
- IATA code : CNG


LFBG - Cognac

CURRENT METAR :
  • 021900Z AUTO 19004KT 110V190 CAVOK 27/11 Q1012 NOSIG

EXPIRED METARs :
  • 021830Z AUTO 19005KT CAVOK 27/11 Q1013 NOSIG
  • 021800Z AUTO 17005KT 140V200 CAVOK 28/11 Q1013 NOSIG
  • 021730Z AUTO VRB03KT CAVOK 28/11 Q1013 NOSIG
  • 021700Z AUTO 17006KT 140V210 CAVOK 28/11 Q1013 NOSIG
  • 021630Z AUTO 12007KT 060V170 CAVOK 28/10 Q1013 NOSIG

TAF TAF LFBG
Valid from the 02 at 15:00 until the 03 at 15:00 UTC


021400Z 0215/0315 VRB03KT CAVOK



MET'MAP, your aeronautical weather chart ! - Copyright ORBIFLY December 2007 - Disclaimer

ORBIFLY MET'MAP TEAM :

Programming & Development : Alexandra Zaïnal
Concept & original design : Baudouin d'Aumeries
Assistance for programming : Marc-Olivier Méhu
Technical & hardware support : Manuel Goepfert

Contact : metmap@orbifly.com




SOURCES & CREDITS :

   NOAA